createdAt,value
2023-05-16T00:01:08.762Z,101077.41
2023-05-16T00:04:00.849Z,101084.94
2023-05-16T00:06:46.117Z,101093.53
2023-05-16T00:09:37.757Z,101092.69
2023-05-16T00:12:22.827Z,101102.34
2023-05-16T00:15:18.767Z,101099.25
2023-05-16T00:18:03.779Z,101109.63
2023-05-16T00:20:55.853Z,101102.91
2023-05-16T00:23:40.723Z,101111.31
2023-05-16T00:26:32.766Z,101105.34
2023-05-16T00:29:17.572Z,101107.28
2023-05-16T00:32:08.922Z,101109.19
2023-05-16T00:34:54.214Z,101118.13
2023-05-16T00:37:45.756Z,101124.34
2023-05-16T00:40:31.249Z,101121.91
2023-05-16T00:43:22.767Z,101122.25
2023-05-16T00:46:13.877Z,101125.63
2023-05-16T00:49:05.764Z,101120.34
2023-05-16T00:51:51.778Z,101124.81
2023-05-16T00:54:43.766Z,101120.13
2023-05-16T00:57:29.396Z,101136.78
2023-05-16T01:00:26.114Z,101141.34
2023-05-16T01:03:11.864Z,101138.97
2023-05-16T01:06:04.770Z,101127.53
2023-05-16T01:08:49.786Z,101134.28
2023-05-16T01:11:58.780Z,101136.94
2023-05-16T01:15:02.791Z,101135.34
2023-05-16T01:18:11.136Z,101147.81
2023-05-16T01:21:07.788Z,101146.03
2023-05-16T01:24:03.641Z,101139.16
2023-05-16T01:26:56.777Z,101150.78
2023-05-16T01:29:41.730Z,101145.84
2023-05-16T01:32:32.853Z,101144.44
2023-05-16T01:35:18.343Z,101146.38
2023-05-16T01:38:30.784Z,101158.84
2023-05-16T01:41:21.990Z,101165.03
2023-05-16T01:44:24.858Z,101161.56
2023-05-16T01:47:20.806Z,101172.22
2023-05-16T01:50:11.047Z,101168.50
2023-05-16T01:53:12.789Z,101169.13
2023-05-16T01:56:07.786Z,101179.72
2023-05-16T01:59:00.786Z,101174.44
2023-05-16T02:01:46.122Z,101181.06
2023-05-16T02:04:37.781Z,101181.84
2023-05-16T02:07:29.776Z,101196.91
2023-05-16T02:10:15.150Z,101200.63
2023-05-16T02:13:06.782Z,101200.63
2023-05-16T02:15:52.830Z,101206.75
2023-05-16T02:18:45.849Z,101203.41
2023-05-16T02:21:31.145Z,101202.06
2023-05-16T02:24:22.809Z,101199.00
2023-05-16T02:27:07.672Z,101212.63
2023-05-16T02:29:58.790Z,101213.88
2023-05-16T02:32:45.066Z,101208.63
2023-05-16T02:35:36.785Z,101216.41
2023-05-16T02:38:21.907Z,101226.00
2023-05-16T02:41:13.779Z,101214.88
2023-05-16T02:44:18.812Z,101225.97
2023-05-16T02:47:10.788Z,101228.38
2023-05-16T02:49:56.244Z,101231.16
2023-05-16T02:52:47.788Z,101243.81
2023-05-16T02:55:32.926Z,101239.53
2023-05-16T02:58:24.803Z,101242.31
2023-05-16T03:01:10.208Z,101243.69
2023-05-16T03:04:01.971Z,101254.69
2023-05-16T03:06:47.049Z,101254.25
2023-05-16T03:09:38.835Z,101260.69
2023-05-16T03:12:24.105Z,101263.28
2023-05-16T03:15:15.828Z,101254.38
2023-05-16T03:18:06.840Z,101263.97
2023-05-16T03:20:59.786Z,101260.53
2023-05-16T03:23:44.400Z,101259.41
2023-05-16T03:26:35.809Z,101266.38
2023-05-16T03:29:21.048Z,101267.63
2023-05-16T03:32:12.826Z,101271.53
2023-05-16T03:35:03.819Z,101277.66
2023-05-16T03:37:48.992Z,101280.41
2023-05-16T03:40:40.800Z,101270.69
2023-05-16T03:43:45.813Z,101285.28
2023-05-16T03:46:37.813Z,101280.53
2023-05-16T03:49:28.244Z,101277.84
2023-05-16T03:52:19.796Z,101284.44
2023-05-16T03:55:12.819Z,101290.84
2023-05-16T03:58:03.813Z,101296.28
2023-05-16T04:00:48.724Z,101291.91
2023-05-16T04:03:40.813Z,101286.91
2023-05-16T04:06:25.733Z,101290.28
2023-05-16T04:09:16.817Z,101287.03
2023-05-16T04:12:02.377Z,101291.63
2023-05-16T04:14:53.840Z,101295.28
2023-05-16T04:17:46.906Z,101300.22
2023-05-16T04:20:37.853Z,101297.50
2023-05-16T04:23:28.814Z,101305.25
2023-05-16T04:26:14.475Z,101302.19
2023-05-16T04:29:05.820Z,101312.25
2023-05-16T04:31:50.746Z,101312.09
2023-05-16T04:34:43.854Z,101313.66
2023-05-16T04:37:34.827Z,101324.41
2023-05-16T04:40:19.544Z,101322.28
2023-05-16T04:43:10.874Z,101321.91
2023-05-16T04:46:08.846Z,101332.19
2023-05-16T04:49:00.832Z,101326.25
2023-05-16T04:51:53.831Z,101339.00
2023-05-16T04:54:39.453Z,101346.09
2023-05-16T04:57:30.816Z,101348.78
2023-05-16T05:00:16.227Z,101344.31
2023-05-16T05:03:07.876Z,101352.31
2023-05-16T05:05:52.931Z,101361.59
2023-05-16T05:08:44.824Z,101367.69
2023-05-16T05:11:29.683Z,101362.16
2023-05-16T05:14:21.081Z,101361.94
2023-05-16T05:17:06.607Z,101354.78
2023-05-16T05:19:57.839Z,101355.69
2023-05-16T05:22:42.959Z,101356.75
2023-05-16T05:25:37.076Z,101350.31
2023-05-16T05:28:22.750Z,101345.72
2023-05-16T05:31:14.852Z,101358.69
2023-05-16T05:33:59.715Z,101357.16
2023-05-16T05:36:51.820Z,101358.56
2023-05-16T05:39:36.698Z,101368.50
2023-05-16T05:42:27.819Z,101374.25
2023-05-16T05:45:19.986Z,101375.47
2023-05-16T05:48:11.857Z,101381.59
2023-05-16T05:51:03.827Z,101387.75
2023-05-16T05:53:49.091Z,101386.09
2023-05-16T05:56:40.836Z,101392.34
2023-05-16T05:59:25.960Z,101389.66
2023-05-16T06:02:17.890Z,101389.97
2023-05-16T06:05:02.905Z,101399.81
2023-05-16T06:07:53.841Z,101403.44
2023-05-16T06:10:38.637Z,101405.38
2023-05-16T06:13:29.874Z,101418.81
2023-05-16T06:16:15.060Z,101414.38
2023-05-16T06:19:06.962Z,101423.88
2023-05-16T06:21:52.162Z,101415.66
2023-05-16T06:24:43.862Z,101419.50
2023-05-16T06:27:34.840Z,101421.53
2023-05-16T06:30:19.981Z,101415.66
2023-05-16T06:33:11.855Z,101412.22
2023-05-16T06:35:56.801Z,101421.63
2023-05-16T06:38:47.864Z,101419.41
2023-05-16T06:41:32.913Z,101416.56
2023-05-16T06:44:30.904Z,101412.66
2023-05-16T06:47:22.268Z,101412.22
2023-05-16T06:50:14.914Z,101412.25
2023-05-16T06:53:00.519Z,101412.28
2023-05-16T06:55:51.883Z,101405.75
2023-05-16T06:58:39.036Z,101410.81
2023-05-16T07:01:32.248Z,101398.94
2023-05-16T07:04:17.747Z,101396.16
2023-05-16T07:07:08.894Z,101402.13
2023-05-16T07:09:54.041Z,101411.59
2023-05-16T07:12:47.901Z,101402.34
2023-05-16T07:15:33.237Z,101409.75
2023-05-16T07:18:24.911Z,101409.28
2023-05-16T07:21:09.719Z,101405.69
2023-05-16T07:24:00.935Z,101415.81
2023-05-16T07:26:45.786Z,101413.47
2023-05-16T07:29:36.930Z,101403.13
2023-05-16T07:32:22.088Z,101409.38
2023-05-16T07:35:13.896Z,101410.03
2023-05-16T07:37:58.780Z,101416.19
2023-05-16T07:40:49.895Z,101419.25
2023-05-16T07:43:54.915Z,101399.56
2023-05-16T07:46:46.954Z,101392.22
2023-05-16T07:49:31.965Z,101395.53
2023-05-16T07:52:23.912Z,101404.97
2023-05-16T07:55:09.486Z,101403.66
2023-05-16T07:58:00.917Z,101397.09
2023-05-16T08:00:52.901Z,101401.41
2023-05-16T08:03:38.041Z,101404.41
2023-05-16T08:06:29.909Z,101405.88
2023-05-16T08:09:14.766Z,101411.41
2023-05-16T08:12:09.898Z,101420.78
2023-05-16T08:14:55.239Z,101418.03
2023-05-16T08:17:46.935Z,101423.09
2023-05-16T08:20:31.680Z,101411.75
2023-05-16T08:23:22.993Z,101420.22
2023-05-16T08:26:07.973Z,101411.94
2023-05-16T08:28:58.930Z,101402.91
2023-05-16T08:31:43.874Z,101395.22
2023-05-16T08:34:37.938Z,101405.00
2023-05-16T08:37:29.931Z,101395.66
2023-05-16T08:40:21.989Z,101401.38
2023-05-16T08:43:07.363Z,101395.69
2023-05-16T08:46:05.920Z,101393.06
2023-05-16T08:49:05.947Z,101400.09
2023-05-16T08:52:01.704Z,101402.03
2023-05-16T08:54:55.272Z,101398.63
2023-05-16T08:57:57.932Z,101391.47
2023-05-16T09:00:43.823Z,101382.75
2023-05-16T09:03:34.976Z,101399.72
2023-05-16T09:06:20.122Z,101393.72
2023-05-16T09:09:13.937Z,101390.47
2023-05-16T09:12:05.942Z,101404.19
2023-05-16T09:14:52.144Z,101398.78
2023-05-16T09:17:47.241Z,101394.25
2023-05-16T09:20:32.586Z,101391.53
2023-05-16T09:23:30.951Z,101400.56
2023-05-16T09:26:16.182Z,101392.50
2023-05-16T09:29:08.945Z,101398.88
2023-05-16T09:31:53.966Z,101398.41
2023-05-16T09:34:51.969Z,101396.06
2023-05-16T09:37:36.983Z,101411.31
2023-05-16T09:40:31.968Z,101407.75
2023-05-16T09:43:24.944Z,101397.44
2023-05-16T09:46:20.096Z,101396.28
2023-05-16T09:49:11.960Z,101383.72
2023-05-16T09:52:07.977Z,101389.47
2023-05-16T09:55:00.966Z,101393.38
2023-05-16T09:57:52.941Z,101389.44
2023-05-16T10:00:44.999Z,101381.50
2023-05-16T10:03:37.149Z,101388.19
2023-05-16T10:06:22.784Z,101394.56
2023-05-16T10:09:18.972Z,101402.06
2023-05-16T10:12:08.144Z,101385.06
2023-05-16T10:14:59.966Z,101376.09
2023-05-16T10:17:50.537Z,101381.84
2023-05-16T10:20:42.972Z,101374.91
2023-05-16T10:23:28.309Z,101388.94
2023-05-16T10:26:23.102Z,101389.78
2023-05-16T10:29:08.424Z,101389.19
2023-05-16T10:32:00.037Z,101383.09
2023-05-16T10:34:46.312Z,101381.94
2023-05-16T10:37:38.981Z,101380.31
2023-05-16T10:40:24.629Z,101370.75
2023-05-16T10:43:15.988Z,101380.72
2023-05-16T10:46:16.083Z,101382.56
2023-05-16T10:49:25.989Z,101362.75
2023-05-16T10:52:18.981Z,101371.38
2023-05-16T10:55:04.807Z,101366.94
2023-05-16T10:57:56.008Z,101368.59
2023-05-16T11:00:41.191Z,101369.31
2023-05-16T11:03:35.086Z,101376.94
2023-05-16T11:06:25.109Z,101386.50
2023-05-16T11:09:23.016Z,101384.41
2023-05-16T11:12:09.598Z,101372.69
2023-05-16T11:15:01.007Z,101388.59
2023-05-16T11:17:46.430Z,101389.13
2023-05-16T11:20:41.020Z,101386.50
2023-05-16T11:23:26.202Z,101379.75
2023-05-16T11:26:18.014Z,101380.03
2023-05-16T11:29:04.532Z,101375.47
2023-05-16T11:31:56.016Z,101383.38
2023-05-16T11:34:41.880Z,101377.06
2023-05-16T11:37:33.053Z,101366.66
2023-05-16T11:40:18.123Z,101380.59
2023-05-16T11:43:10.020Z,101375.06
2023-05-16T11:46:01.308Z,101386.16
2023-05-16T11:48:54.009Z,101389.22
2023-05-16T11:51:43.336Z,101395.56
2023-05-16T11:54:35.025Z,101392.22
2023-05-16T11:57:21.575Z,101401.72
2023-05-16T12:00:21.048Z,101388.81
2023-05-16T12:03:13.287Z,101385.81
2023-05-16T12:06:05.007Z,101389.88
2023-05-16T12:08:51.445Z,101387.53
2023-05-16T12:11:48.029Z,101390.53
2023-05-16T12:14:33.426Z,101392.06
2023-05-16T12:17:27.105Z,101395.22
2023-05-16T12:20:14.257Z,101393.03
2023-05-16T12:23:06.031Z,101386.00
2023-05-16T12:26:00.021Z,101389.25
2023-05-16T12:28:51.127Z,101388.16
2023-05-16T12:31:38.645Z,101383.22
2023-05-16T12:34:31.048Z,101388.72
2023-05-16T12:37:15.985Z,101389.13
2023-05-16T12:40:08.041Z,101387.69
2023-05-16T12:42:53.962Z,101389.75
2023-05-16T12:46:00.099Z,101380.94
2023-05-16T12:48:51.084Z,101384.94
2023-05-16T12:51:42.062Z,101392.84
2023-05-16T12:54:26.917Z,101392.34
2023-05-16T12:57:18.032Z,101392.41
2023-05-16T13:00:03.571Z,101394.91
2023-05-16T13:02:55.132Z,101404.72
2023-05-16T13:05:40.951Z,101408.38
2023-05-16T13:08:34.056Z,101410.38
2023-05-16T13:11:19.103Z,101402.25
2023-05-16T13:14:11.073Z,101409.22
2023-05-16T13:16:56.198Z,101413.22
2023-05-16T13:19:49.015Z,101422.53
2023-05-16T13:22:34.345Z,101407.34
2023-05-16T13:25:26.296Z,101411.03
2023-05-16T13:28:11.462Z,101409.16
2023-05-16T13:31:03.065Z,101416.41
2023-05-16T13:33:48.868Z,101420.03
2023-05-16T13:36:53.226Z,101416.03
2023-05-16T13:39:46.059Z,101413.59
2023-05-16T13:42:52.074Z,101414.00
2023-05-16T13:45:44.126Z,101415.03
2023-05-16T13:48:43.052Z,101412.81
2023-05-16T13:51:27.864Z,101414.31
2023-05-16T13:54:19.081Z,101406.81
2023-05-16T13:57:05.011Z,101420.00
2023-05-16T14:00:24.903Z,101418.59
2023-05-16T14:03:08.085Z,101420.16
2023-05-16T14:05:52.922Z,101421.56
2023-05-16T14:08:45.091Z,101412.25
2023-05-16T14:11:30.486Z,101413.59
2023-05-16T14:14:22.100Z,101404.72
2023-05-16T14:17:07.424Z,101399.69
2023-05-16T14:20:00.087Z,101401.94
2023-05-16T14:22:45.006Z,101392.44
2023-05-16T14:25:37.173Z,101402.09
2023-05-16T14:28:22.111Z,101385.09
2023-05-16T14:31:13.088Z,101385.47
2023-05-16T14:33:58.933Z,101386.56
2023-05-16T14:36:50.061Z,101375.81
2023-05-16T14:39:35.087Z,101381.56
2023-05-16T14:42:27.085Z,101394.59
2023-05-16T14:45:18.148Z,101395.38
2023-05-16T14:48:16.156Z,101393.16
2023-05-16T14:51:01.557Z,101395.78
2023-05-16T14:53:54.080Z,101397.72
2023-05-16T14:56:39.157Z,101394.56
2023-05-16T14:59:30.086Z,101402.78
2023-05-16T15:02:15.189Z,101398.47
2023-05-16T15:05:07.181Z,101401.78
2023-05-16T15:07:52.403Z,101400.81
2023-05-16T15:10:44.060Z,101403.53
2023-05-16T15:13:29.386Z,101406.09
2023-05-16T15:16:21.119Z,101401.47
2023-05-16T15:19:06.119Z,101413.97
2023-05-16T15:21:58.062Z,101419.34
2023-05-16T15:24:49.259Z,101415.25
2023-05-16T15:27:34.476Z,101413.38
2023-05-16T15:30:26.120Z,101419.97
2023-05-16T15:33:11.338Z,101421.38
2023-05-16T15:36:03.072Z,101423.06
2023-05-16T15:38:48.053Z,101429.56
2023-05-16T15:42:05.372Z,101417.91
2023-05-16T15:44:51.099Z,101432.91
2023-05-16T15:47:42.123Z,101434.06
2023-05-16T15:50:34.113Z,101441.91
2023-05-16T15:53:19.019Z,101444.56
2023-05-16T15:56:11.088Z,101446.88
2023-05-16T15:59:03.098Z,101443.53
2023-05-16T16:01:54.125Z,101449.06
2023-05-16T16:04:38.949Z,101453.03
2023-05-16T16:07:31.076Z,101456.66
2023-05-16T16:10:19.485Z,101459.88
2023-05-16T16:13:12.113Z,101454.88
2023-05-16T16:16:04.171Z,101456.72
2023-05-16T16:18:50.286Z,101454.09
2023-05-16T16:21:42.084Z,101459.44
2023-05-16T16:24:27.012Z,101452.88
2023-05-16T16:27:19.103Z,101447.91
2023-05-16T16:30:05.423Z,101459.72
2023-05-16T16:32:57.172Z,101452.19
2023-05-16T16:35:42.812Z,101454.19
2023-05-16T16:38:34.124Z,101461.19
2023-05-16T16:41:26.101Z,101461.53
2023-05-16T16:44:18.101Z,101465.94
2023-05-16T16:47:09.336Z,101472.72
2023-05-16T16:50:01.122Z,101478.72
2023-05-16T16:52:52.107Z,101484.69
2023-05-16T16:55:44.122Z,101476.69
2023-05-16T16:58:36.330Z,101482.56
2023-05-16T17:01:29.954Z,101485.31
2023-05-16T17:04:22.104Z,101485.66
2023-05-16T17:07:14.330Z,101489.47
2023-05-16T17:10:00.825Z,101490.13
2023-05-16T17:12:56.153Z,101494.59
2023-05-16T17:15:48.132Z,101494.34
2023-05-16T17:18:40.120Z,101500.34
2023-05-16T17:21:25.299Z,101508.50
2023-05-16T17:24:17.114Z,101507.88
2023-05-16T17:27:02.666Z,101509.09
2023-05-16T17:29:54.119Z,101510.22
2023-05-16T17:32:46.142Z,101516.50
2023-05-16T17:35:38.136Z,101517.75
2023-05-16T17:38:30.112Z,101523.59
2023-05-16T17:41:21.131Z,101514.38
2023-05-16T17:44:06.952Z,101528.81
2023-05-16T17:47:05.122Z,101526.13
2023-05-16T17:49:50.018Z,101526.72
2023-05-16T17:52:42.152Z,101534.47
2023-05-16T17:55:27.422Z,101540.66
2023-05-16T17:58:19.125Z,101529.78
2023-05-16T18:01:09.046Z,101539.66
2023-05-16T18:04:01.227Z,101540.16
2023-05-16T18:06:48.197Z,101540.41
2023-05-16T18:09:40.126Z,101544.09
2023-05-16T18:12:25.282Z,101543.38
2023-05-16T18:15:20.143Z,101546.53
2023-05-16T18:18:05.039Z,101545.66
2023-05-16T18:20:57.142Z,101554.94
2023-05-16T18:23:42.110Z,101545.13
2023-05-16T18:26:35.221Z,101556.53
2023-05-16T18:29:21.381Z,101556.84
2023-05-16T18:32:13.126Z,101553.19
2023-05-16T18:35:04.146Z,101553.50
2023-05-16T18:37:49.181Z,101563.91
2023-05-16T18:40:41.158Z,101558.22
2023-05-16T18:43:33.302Z,101560.72
2023-05-16T18:46:31.154Z,101565.72
2023-05-16T18:49:29.144Z,101566.19
2023-05-16T18:52:14.142Z,101565.22
2023-05-16T18:55:06.253Z,101568.25
2023-05-16T18:57:58.139Z,101569.22
2023-05-16T19:00:43.025Z,101576.97
2023-05-16T19:03:34.243Z,101569.47
2023-05-16T19:06:19.063Z,101573.41
2023-05-16T19:09:10.154Z,101575.47
2023-05-16T19:11:54.985Z,101570.19
2023-05-16T19:14:46.156Z,101577.44
2023-05-16T19:17:31.161Z,101587.81
2023-05-16T19:20:23.274Z,101584.41
2023-05-16T19:23:08.343Z,101599.00
2023-05-16T19:26:00.158Z,101598.63
2023-05-16T19:28:45.311Z,101598.50
2023-05-16T19:31:37.165Z,101604.38
2023-05-16T19:34:22.163Z,101604.94
2023-05-16T19:37:15.157Z,101601.31
2023-05-16T19:39:59.894Z,101607.69
2023-05-16T19:42:51.152Z,101610.25
2023-05-16T19:45:57.156Z,101617.09
2023-05-16T19:48:49.316Z,101618.22
2023-05-16T19:51:42.255Z,101610.91
2023-05-16T19:54:34.144Z,101620.03
2023-05-16T19:57:19.017Z,101620.09
2023-05-16T20:00:12.156Z,101621.72
2023-05-16T20:02:57.354Z,101619.56
2023-05-16T20:05:49.205Z,101614.13
2023-05-16T20:08:34.289Z,101617.34
2023-05-16T20:11:26.172Z,101621.31
2023-05-16T20:14:18.156Z,101613.84
2023-05-16T20:17:03.279Z,101618.22
2023-05-16T20:19:55.374Z,101622.00
2023-05-16T20:22:48.165Z,101623.03
2023-05-16T20:25:33.020Z,101635.47
2023-05-16T20:28:24.164Z,101634.63
2023-05-16T20:31:11.718Z,101636.44
2023-05-16T20:34:03.185Z,101629.59
2023-05-16T20:36:55.165Z,101629.28
2023-05-16T20:39:40.338Z,101634.78
2023-05-16T20:42:32.150Z,101636.13
2023-05-16T20:45:37.173Z,101631.22
2023-05-16T20:48:28.283Z,101644.16
2023-05-16T20:51:13.626Z,101639.22
2023-05-16T20:54:05.188Z,101648.47
2023-05-16T20:56:50.291Z,101643.22
2023-05-16T20:59:44.187Z,101640.13
2023-05-16T21:02:29.606Z,101645.03
2023-05-16T21:05:25.662Z,101647.00
2023-05-16T21:08:18.167Z,101659.84
2023-05-16T21:11:10.195Z,101648.69
2023-05-16T21:14:02.173Z,101645.03
2023-05-16T21:16:54.206Z,101639.84
2023-05-16T21:19:45.211Z,101648.38
2023-05-16T21:22:37.199Z,101649.38
2023-05-16T21:25:28.439Z,101646.59
2023-05-16T21:28:13.670Z,101653.31
2023-05-16T21:31:05.213Z,101650.25
2023-05-16T21:33:53.441Z,101645.63
2023-05-16T21:36:45.184Z,101652.63
2023-05-16T21:39:36.207Z,101648.03
2023-05-16T21:42:21.284Z,101649.28
2023-05-16T21:45:19.199Z,101643.16
2023-05-16T21:48:10.527Z,101651.09
2023-05-16T21:51:02.247Z,101650.97
2023-05-16T21:53:47.035Z,101663.81
2023-05-16T21:56:39.202Z,101666.34
2023-05-16T21:59:30.203Z,101666.88
2023-05-16T22:02:15.287Z,101668.84
2023-05-16T22:05:06.264Z,101664.66
2023-05-16T22:07:51.365Z,101666.19
2023-05-16T22:10:43.255Z,101669.81
2023-05-16T22:13:28.181Z,101671.91
2023-05-16T22:16:19.215Z,101672.63
2023-05-16T22:19:10.275Z,101666.88
2023-05-16T22:21:55.102Z,101665.47
2023-05-16T22:24:46.202Z,101672.03
2023-05-16T22:27:37.209Z,101666.19
2023-05-16T22:30:22.088Z,101681.50
2023-05-16T22:33:13.253Z,101683.44
2023-05-16T22:35:58.312Z,101684.00
2023-05-16T22:38:49.203Z,101684.81
2023-05-16T22:41:40.213Z,101685.66
2023-05-16T22:44:25.230Z,101683.84
2023-05-16T22:47:23.218Z,101691.75
2023-05-16T22:50:08.411Z,101687.72
2023-05-16T22:53:00.193Z,101687.41
2023-05-16T22:55:51.223Z,101692.69
2023-05-16T22:58:36.097Z,101695.53
2023-05-16T23:01:28.237Z,101690.22
2023-05-16T23:04:20.239Z,101687.00
2023-05-16T23:07:05.534Z,101691.22
2023-05-16T23:09:57.210Z,101697.91
2023-05-16T23:12:42.204Z,101695.81
2023-05-16T23:15:34.231Z,101703.84
2023-05-16T23:18:19.306Z,101710.44
2023-05-16T23:21:11.212Z,101704.19
2023-05-16T23:24:02.229Z,101705.16
2023-05-16T23:26:47.023Z,101719.19
2023-05-16T23:29:38.231Z,101721.25
2023-05-16T23:32:23.137Z,101724.75
2023-05-16T23:35:15.230Z,101726.16
2023-05-16T23:38:00.051Z,101725.97
2023-05-16T23:40:51.230Z,101733.34
2023-05-16T23:43:36.122Z,101735.84
2023-05-16T23:46:34.224Z,101732.97
2023-05-16T23:49:19.183Z,101729.22
2023-05-16T23:52:12.235Z,101739.19
2023-05-16T23:54:56.990Z,101739.84
2023-05-16T23:57:48.232Z,101744.09
